createdAt,value
2023-02-17T00:00:58.220Z,96887.25
2023-02-17T00:02:06.361Z,96875.31
2023-02-17T00:03:10.143Z,96881.19
2023-02-17T00:04:14.957Z,96879.34
2023-02-17T00:05:17.258Z,96882.94
2023-02-17T00:06:24.033Z,96877.78
2023-02-17T00:07:31.675Z,96871.56
2023-02-17T00:08:36.752Z,96877.66
2023-02-17T00:09:41.636Z,96876.75
2023-02-17T00:10:44.294Z,96874.22
2023-02-17T00:11:49.387Z,96875.84
2023-02-17T00:12:51.472Z,96872.75
2023-02-17T00:13:56.696Z,96874.69
2023-02-17T00:14:59.312Z,96870.41
2023-02-17T00:16:09.243Z,96878.94
2023-02-17T00:17:14.578Z,96874.00
2023-02-17T00:18:19.653Z,96876.47
2023-02-17T00:19:25.268Z,96875.53
2023-02-17T00:20:32.386Z,96877.38
2023-02-17T00:21:35.628Z,96866.94
2023-02-17T00:22:40.522Z,96861.44
2023-02-17T00:23:43.278Z,96858.69
2023-02-17T00:24:48.294Z,96865.72
2023-02-17T00:25:50.436Z,96858.63
2023-02-17T00:26:59.384Z,96857.91
2023-02-17T00:28:01.771Z,96857.84
2023-02-17T00:29:10.598Z,96857.06
2023-02-17T00:30:13.013Z,96852.66
2023-02-17T00:31:20.809Z,96857.94
2023-02-17T00:32:27.049Z,96852.84
2023-02-17T00:33:32.061Z,96861.69
2023-02-17T00:34:34.216Z,96853.28
2023-02-17T00:35:43.002Z,96846.34
2023-02-17T00:36:45.099Z,96853.28
2023-02-17T00:37:49.711Z,96846.41
2023-02-17T00:38:54.284Z,96854.00
2023-02-17T00:40:00.900Z,96843.47
2023-02-17T00:41:04.730Z,96854.00
2023-02-17T00:42:12.183Z,96850.63
2023-02-17T00:43:14.510Z,96843.81
2023-02-17T00:44:21.210Z,96851.69
2023-02-17T00:45:29.150Z,96850.63
2023-02-17T00:46:35.953Z,96849.75
2023-02-17T00:47:40.832Z,96858.38
2023-02-17T00:48:45.775Z,96855.47
2023-02-17T00:49:48.166Z,96857.84
2023-02-17T00:50:53.603Z,96854.50
2023-02-17T00:51:55.698Z,96863.91
2023-02-17T00:53:00.827Z,96858.69
2023-02-17T00:54:02.990Z,96863.91
2023-02-17T00:55:08.402Z,96861.34
2023-02-17T00:56:10.885Z,96860.59
2023-02-17T00:57:15.632Z,96859.66
2023-02-17T00:58:17.853Z,96861.34
2023-02-17T00:59:22.699Z,96856.16
2023-02-17T01:00:25.052Z,96864.03
2023-02-17T01:01:32.213Z,96855.41
2023-02-17T01:02:34.466Z,96856.97
2023-02-17T01:03:42.425Z,96851.00
2023-02-17T01:04:46.133Z,96858.84
2023-02-17T01:05:51.857Z,96853.53
2023-02-17T01:06:54.001Z,96850.28
2023-02-17T01:08:00.110Z,96850.38
2023-02-17T01:09:02.697Z,96852.00
2023-02-17T01:10:08.007Z,96852.84
2023-02-17T01:11:17.895Z,96855.56
2023-02-17T01:12:22.669Z,96846.28
2023-02-17T01:13:25.045Z,96855.88
2023-02-17T01:14:30.689Z,96857.56
2023-02-17T01:15:37.032Z,96862.03
2023-02-17T01:16:43.616Z,96859.34
2023-02-17T01:17:45.725Z,96858.22
2023-02-17T01:18:53.445Z,96860.63
2023-02-17T01:19:55.877Z,96855.63
2023-02-17T01:21:00.984Z,96852.94
2023-02-17T01:22:03.071Z,96855.53
2023-02-17T01:23:10.941Z,96856.25
2023-02-17T01:24:14.117Z,96850.28
2023-02-17T01:25:19.264Z,96853.66
2023-02-17T01:26:23.331Z,96840.88
2023-02-17T01:27:28.663Z,96836.47
2023-02-17T01:28:31.600Z,96841.63
2023-02-17T01:29:36.589Z,96845.84
2023-02-17T01:30:38.739Z,96843.22
2023-02-17T01:31:43.630Z,96834.53
2023-02-17T01:32:45.819Z,96848.50
2023-02-17T01:33:53.631Z,96846.59
2023-02-17T01:34:55.816Z,96844.13
2023-02-17T01:36:05.334Z,96847.66
2023-02-17T01:37:07.978Z,96842.19
2023-02-17T01:38:14.287Z,96837.94
2023-02-17T01:39:17.427Z,96838.16
2023-02-17T01:40:22.735Z,96838.16
2023-02-17T01:41:28.197Z,96831.31
2023-02-17T01:42:40.451Z,96831.22
2023-02-17T01:43:42.840Z,96835.56
2023-02-17T01:45:30.183Z,96829.47
2023-02-17T01:46:32.973Z,96818.34
2023-02-17T01:47:37.899Z,96822.50
2023-02-17T01:48:45.581Z,96829.69
2023-02-17T01:49:52.991Z,96828.84
2023-02-17T01:51:01.470Z,96825.41
2023-02-17T01:52:13.481Z,96826.25
2023-02-17T01:53:20.099Z,96827.09
2023-02-17T01:54:29.910Z,96827.16
2023-02-17T01:55:34.563Z,96828.84
2023-02-17T01:56:43.549Z,96825.31
2023-02-17T01:57:47.314Z,96817.53
2023-02-17T01:58:56.804Z,96820.75
2023-02-17T02:00:00.243Z,96817.53
2023-02-17T02:01:08.043Z,96820.13
2023-02-17T02:02:10.514Z,96823.53
2023-02-17T02:03:17.673Z,96815.66
2023-02-17T02:04:25.783Z,96819.22
2023-02-17T02:05:37.558Z,96817.34
2023-02-17T02:06:43.633Z,96817.44
2023-02-17T02:07:53.259Z,96814.06
2023-02-17T02:09:05.316Z,96815.59
2023-02-17T02:10:12.341Z,96816.38
2023-02-17T02:11:17.500Z,96812.16
2023-02-17T02:12:25.146Z,96803.69
2023-02-17T02:13:27.300Z,96807.19
2023-02-17T02:14:32.698Z,96817.44
2023-02-17T02:15:44.281Z,96811.94
2023-02-17T02:16:55.042Z,96808.75
2023-02-17T02:18:23.341Z,96805.31
2023-02-17T02:19:46.672Z,96811.53
2023-02-17T02:21:26.781Z,96800.28
2023-02-17T02:23:07.598Z,96798.75
2023-02-17T02:24:24.150Z,96802.16
2023-02-17T02:25:45.110Z,96802.13
2023-02-17T02:27:26.069Z,96800.31
2023-02-17T02:28:47.849Z,96800.22
2023-02-17T02:30:23.786Z,96800.38
2023-02-17T02:31:40.772Z,96796.72
2023-02-17T02:33:08.056Z,96800.13
2023-02-17T02:34:19.132Z,96798.41
2023-02-17T02:35:29.028Z,96791.66
2023-02-17T02:36:40.736Z,96791.41
2023-02-17T02:37:44.432Z,96789.66
2023-02-17T02:38:59.879Z,96790.75
2023-02-17T02:40:08.603Z,96785.44
2023-02-17T02:41:16.981Z,96799.25
2023-02-17T02:42:24.666Z,96783.09
2023-02-17T02:43:29.694Z,96783.94
2023-02-17T02:44:32.107Z,96791.66
2023-02-17T02:45:37.313Z,96788.28
2023-02-17T02:46:39.446Z,96794.25
2023-02-17T02:47:50.716Z,96786.59
2023-02-17T02:48:58.817Z,96785.00
2023-02-17T02:50:01.375Z,96793.78
2023-02-17T02:51:24.224Z,96789.31
2023-02-17T02:52:32.111Z,96786.03
2023-02-17T02:54:10.816Z,96790.06
2023-02-17T02:55:22.723Z,96778.03
2023-02-17T02:56:37.976Z,96781.44
2023-02-17T02:57:50.166Z,96789.09
2023-02-17T02:59:03.093Z,96780.63
2023-02-17T03:00:16.071Z,96781.53
2023-02-17T03:01:27.508Z,96779.56
2023-02-17T03:02:39.552Z,96781.53
2023-02-17T03:03:47.477Z,96778.03
2023-02-17T03:05:04.766Z,96774.75
2023-02-17T03:06:15.373Z,96778.25
2023-02-17T03:07:27.815Z,96774.88
2023-02-17T03:08:38.077Z,96774.03
2023-02-17T03:09:40.244Z,96773.19
2023-02-17T03:10:49.401Z,96776.66
2023-02-17T03:11:55.690Z,96774.03
2023-02-17T03:13:01.687Z,96779.13
2023-02-17T03:14:07.887Z,96771.38
2023-02-17T03:15:18.844Z,96772.25
2023-02-17T03:16:20.992Z,96764.31
2023-02-17T03:17:29.056Z,96760.19
2023-02-17T03:18:32.636Z,96766.00
2023-02-17T03:19:38.168Z,96764.41
2023-02-17T03:20:49.546Z,96768.78
2023-02-17T03:21:58.853Z,96771.59
2023-02-17T03:23:01.423Z,96766.41
2023-02-17T03:24:06.272Z,96763.06
2023-02-17T03:25:13.180Z,96758.06
2023-02-17T03:26:17.869Z,96757.97
2023-02-17T03:27:19.973Z,96764.00
2023-02-17T03:28:24.873Z,96762.16
2023-02-17T03:29:27.004Z,96749.31
2023-02-17T03:30:33.484Z,96758.72
2023-02-17T03:31:36.256Z,96758.06
2023-02-17T03:32:41.171Z,96754.59
2023-02-17T03:33:43.382Z,96758.06
2023-02-17T03:34:48.171Z,96755.59
2023-02-17T03:35:53.372Z,96743.50
2023-02-17T03:36:58.246Z,96751.34
2023-02-17T03:38:00.407Z,96747.84
2023-02-17T03:39:07.258Z,96745.34
2023-02-17T03:40:10.701Z,96743.56
2023-02-17T03:41:15.522Z,96748.78
2023-02-17T03:42:17.689Z,96753.00
2023-02-17T03:43:22.316Z,96753.13
2023-02-17T03:44:24.656Z,96755.50
2023-02-17T03:45:32.035Z,96746.28
2023-02-17T03:46:34.206Z,96760.94
2023-02-17T03:47:39.161Z,96748.09
2023-02-17T03:48:41.372Z,96743.91
2023-02-17T03:49:46.654Z,96758.41
2023-02-17T03:50:48.985Z,96755.09
2023-02-17T03:51:56.498Z,96768.63
2023-02-17T03:52:58.604Z,96753.78
2023-02-17T03:54:03.364Z,96751.34
2023-02-17T03:55:06.520Z,96751.22
2023-02-17T03:56:11.674Z,96753.00
2023-02-17T03:57:13.652Z,96743.72
2023-02-17T03:58:18.258Z,96750.63
2023-02-17T03:59:20.496Z,96749.06
2023-02-17T04:00:25.550Z,96751.59
2023-02-17T04:01:27.740Z,96751.34
2023-02-17T04:02:32.418Z,96751.34
2023-02-17T04:03:35.231Z,96754.81
2023-02-17T04:04:39.879Z,96749.66
2023-02-17T04:05:44.756Z,96737.50
2023-02-17T04:06:49.872Z,96745.44
2023-02-17T04:07:54.610Z,96754.81
2023-02-17T04:08:59.263Z,96757.34
2023-02-17T04:10:03.274Z,96756.50
2023-02-17T04:11:12.164Z,96761.47
2023-02-17T04:12:16.787Z,96754.03
2023-02-17T04:13:21.803Z,96759.13
2023-02-17T04:14:24.048Z,96756.13
2023-02-17T04:15:30.149Z,96761.13
2023-02-17T04:16:32.823Z,96769.81
2023-02-17T04:17:39.065Z,96756.06
2023-02-17T04:18:41.165Z,96757.94
2023-02-17T04:19:45.880Z,96762.38
2023-02-17T04:20:50.161Z,96757.97
2023-02-17T04:21:55.669Z,96765.72
2023-02-17T04:23:00.392Z,96763.13
2023-02-17T04:24:09.054Z,96757.31
2023-02-17T04:25:11.116Z,96763.25
2023-02-17T04:26:16.143Z,96763.09
2023-02-17T04:27:18.488Z,96762.47
2023-02-17T04:28:27.242Z,96768.41
2023-02-17T04:29:32.276Z,96765.78
2023-02-17T04:30:35.002Z,96773.50
2023-02-17T04:31:39.922Z,96763.25
2023-02-17T04:32:42.243Z,96769.13
2023-02-17T04:33:47.150Z,96769.91
2023-02-17T04:34:50.798Z,96762.00
2023-02-17T04:35:59.831Z,96756.66
2023-02-17T04:37:04.558Z,96752.50
2023-02-17T04:38:10.865Z,96771.47
2023-02-17T04:39:15.692Z,96759.34
2023-02-17T04:40:18.257Z,96774.94
2023-02-17T04:41:23.200Z,96779.13
2023-02-17T04:42:25.633Z,96765.44
2023-02-17T04:43:32.609Z,96778.25
2023-02-17T04:44:34.760Z,96775.50
2023-02-17T04:45:40.686Z,96779.81
2023-02-17T04:46:42.916Z,96776.56
2023-02-17T04:47:48.007Z,96762.63
2023-02-17T04:48:52.201Z,96769.59
2023-02-17T04:49:57.342Z,96774.53
2023-02-17T04:50:59.489Z,96782.38
2023-02-17T04:52:04.841Z,96762.50
2023-02-17T04:53:09.665Z,96766.97
2023-02-17T04:54:14.406Z,96773.00
2023-02-17T04:55:17.699Z,96774.88
2023-02-17T04:56:23.918Z,96783.44
2023-02-17T04:57:28.970Z,96773.91
2023-02-17T04:58:33.872Z,96773.09
2023-02-17T04:59:36.206Z,96768.63
2023-02-17T05:00:41.274Z,96760.94
2023-02-17T05:01:46.790Z,96773.88
2023-02-17T05:02:51.903Z,96774.75
2023-02-17T05:03:53.982Z,96767.00
2023-02-17T05:04:58.920Z,96781.72
2023-02-17T05:06:03.479Z,96764.41
2023-02-17T05:07:08.449Z,96766.31
2023-02-17T05:08:14.771Z,96769.84
2023-02-17T05:09:19.492Z,96760.19
2023-02-17T05:10:24.002Z,96764.66
2023-02-17T05:11:32.072Z,96763.78
2023-02-17T05:12:36.477Z,96768.13
2023-02-17T05:13:43.944Z,96762.09
2023-02-17T05:14:51.323Z,96769.69
2023-02-17T05:16:00.593Z,96762.63
2023-02-17T05:17:04.650Z,96753.22
2023-02-17T05:18:15.439Z,96757.78
2023-02-17T05:19:17.576Z,96755.84
2023-02-17T05:20:33.665Z,96750.91
2023-02-17T05:21:36.355Z,96760.47
2023-02-17T05:22:50.000Z,96751.00
2023-02-17T05:23:57.108Z,96755.22
2023-02-17T05:25:05.143Z,96760.47
2023-02-17T05:26:08.145Z,96756.06
2023-02-17T05:27:14.102Z,96753.56
2023-02-17T05:28:17.210Z,96758.72
2023-02-17T05:29:31.217Z,96748.19
2023-02-17T05:30:33.423Z,96758.50
2023-02-17T05:31:40.877Z,96763.06
2023-02-17T05:32:44.444Z,96763.13
2023-02-17T05:33:56.069Z,96762.19
2023-02-17T05:35:01.229Z,96758.06
2023-02-17T05:36:11.086Z,96761.53
2023-02-17T05:37:13.497Z,96761.34
2023-02-17T05:38:18.461Z,96759.69
2023-02-17T05:39:23.708Z,96766.53
2023-02-17T05:40:29.869Z,96767.53
2023-02-17T05:41:32.036Z,96759.78
2023-02-17T05:42:37.386Z,96762.25
2023-02-17T05:43:42.225Z,96767.66
2023-02-17T05:44:44.553Z,96766.84
2023-02-17T05:45:49.755Z,96765.91
2023-02-17T05:46:51.971Z,96766.84
2023-02-17T05:47:56.931Z,96765.94
2023-02-17T05:48:58.989Z,96769.28
2023-02-17T05:50:03.938Z,96772.63
2023-02-17T05:51:06.670Z,96769.13
2023-02-17T05:52:11.507Z,96777.09
2023-02-17T05:53:13.934Z,96772.66
2023-02-17T05:54:18.761Z,96775.31
2023-02-17T05:55:32.459Z,96784.72
2023-02-17T05:56:40.396Z,96770.28
2023-02-17T05:57:44.954Z,96767.69
2023-02-17T05:58:50.294Z,96766.84
2023-02-17T05:59:53.401Z,96771.81
2023-02-17T06:01:01.503Z,96775.31
2023-02-17T06:02:14.957Z,96775.09
2023-02-17T06:03:20.790Z,96777.91
2023-02-17T06:04:23.820Z,96783.84
2023-02-17T06:05:29.142Z,96777.69
2023-02-17T06:06:31.821Z,96786.38
2023-02-17T06:07:37.376Z,96786.28
2023-02-17T06:08:43.354Z,96783.66
2023-02-17T06:10:01.753Z,96782.84
2023-02-17T06:11:25.338Z,96785.28
2023-02-17T06:12:28.808Z,96786.06
2023-02-17T06:13:34.318Z,96788.81
2023-02-17T06:14:36.589Z,96779.13
2023-02-17T06:15:44.427Z,96785.34
2023-02-17T06:16:47.200Z,96787.34
2023-02-17T06:17:57.192Z,96785.53
2023-02-17T06:19:00.519Z,96795.81
2023-02-17T06:20:16.591Z,96791.56
2023-02-17T06:21:19.015Z,96792.38
2023-02-17T06:22:26.048Z,96792.41
2023-02-17T06:23:32.352Z,96794.19
2023-02-17T06:24:37.500Z,96795.00
2023-02-17T06:25:40.679Z,96801.06
2023-02-17T06:26:56.880Z,96794.19
2023-02-17T06:28:02.041Z,96795.31
2023-02-17T06:29:07.462Z,96790.94
2023-02-17T06:30:15.108Z,96798.47
2023-02-17T06:31:25.077Z,96797.69
2023-02-17T06:32:27.769Z,96797.78
2023-02-17T06:33:33.845Z,96802.75
2023-02-17T06:34:46.376Z,96794.94
2023-02-17T06:35:55.332Z,96803.59
2023-02-17T06:36:58.141Z,96798.53
2023-02-17T06:38:04.042Z,96802.63
2023-02-17T06:39:07.021Z,96801.00
2023-02-17T06:40:16.750Z,96801.22
2023-02-17T06:41:19.242Z,96808.72
2023-02-17T06:42:35.584Z,96800.38
2023-02-17T06:43:42.271Z,96803.56
2023-02-17T06:44:55.860Z,96806.94
2023-02-17T06:46:06.155Z,96805.91
2023-02-17T06:47:10.059Z,96799.91
2023-02-17T06:48:19.823Z,96811.31
2023-02-17T06:49:25.342Z,96797.69
2023-02-17T06:50:29.313Z,96800.97
2023-02-17T06:51:34.154Z,96802.63
2023-02-17T06:52:39.180Z,96802.63
2023-02-17T06:53:43.839Z,96800.97
2023-02-17T06:54:49.371Z,96800.34
2023-02-17T06:55:55.192Z,96801.38
2023-02-17T06:56:59.690Z,96796.22
2023-02-17T06:58:10.255Z,96802.97
2023-02-17T06:59:18.222Z,96806.25
2023-02-17T07:00:25.662Z,96801.94
2023-02-17T07:01:30.592Z,96797.69
2023-02-17T07:02:32.831Z,96804.63
2023-02-17T07:03:38.018Z,96802.16
2023-02-17T07:04:42.959Z,96801.91
2023-02-17T07:05:56.820Z,96804.47
2023-02-17T07:07:02.425Z,96811.53
2023-02-17T07:08:08.538Z,96816.59
2023-02-17T07:09:14.337Z,96807.91
2023-02-17T07:10:19.090Z,96814.63
2023-02-17T07:11:25.056Z,96810.28
2023-02-17T07:12:28.240Z,96820.81
2023-02-17T07:13:35.824Z,96807.78
2023-02-17T07:14:47.744Z,96809.56
2023-02-17T07:15:49.909Z,96807.91
2023-02-17T07:16:56.010Z,96807.91
2023-02-17T07:18:00.802Z,96803.41
2023-02-17T07:19:02.855Z,96807.66
2023-02-17T07:20:09.548Z,96809.41
2023-02-17T07:21:11.618Z,96803.19
2023-02-17T07:22:18.234Z,96798.28
2023-02-17T07:23:24.039Z,96804.13
2023-02-17T07:24:26.958Z,96807.44
2023-02-17T07:25:31.814Z,96801.53
2023-02-17T07:26:36.742Z,96807.72
2023-02-17T07:27:41.970Z,96806.72
2023-02-17T07:28:47.701Z,96806.50
2023-02-17T07:29:52.718Z,96807.44
2023-02-17T07:30:55.113Z,96810.03
2023-02-17T07:32:00.183Z,96808.19
2023-02-17T07:33:02.374Z,96809.94
2023-02-17T07:34:09.362Z,96817.94
2023-02-17T07:35:14.161Z,96812.03
2023-02-17T07:36:20.258Z,96811.81
2023-02-17T07:37:22.305Z,96811.94
2023-02-17T07:38:54.450Z,96815.38
2023-02-17T07:39:57.392Z,96806.66
2023-02-17T07:41:08.492Z,96812.00
2023-02-17T07:42:13.251Z,96806.03
2023-02-17T07:43:15.300Z,96804.38
2023-02-17T07:44:22.833Z,96808.63
2023-02-17T07:45:25.303Z,96804.34
2023-02-17T07:46:31.014Z,96804.34
2023-02-17T07:47:33.375Z,96805.91
2023-02-17T07:48:40.370Z,96806.53
2023-02-17T07:49:46.119Z,96811.91
2023-02-17T07:50:48.397Z,96816.16
2023-02-17T07:51:53.331Z,96816.75
2023-02-17T07:52:55.462Z,96815.94
2023-02-17T07:54:00.847Z,96820.25
2023-02-17T07:55:03.727Z,96819.44
2023-02-17T07:56:11.397Z,96822.94
2023-02-17T07:57:16.410Z,96809.81
2023-02-17T07:58:19.090Z,96821.31
2023-02-17T07:59:26.765Z,96836.75
2023-02-17T08:00:30.690Z,96820.66
2023-02-17T08:01:35.772Z,96833.28
2023-02-17T08:02:38.110Z,96831.59
2023-02-17T08:03:43.417Z,96829.78
2023-02-17T08:04:50.121Z,96839.13
2023-02-17T08:05:56.874Z,96844.38
2023-02-17T08:07:02.313Z,96845.31
2023-02-17T08:08:20.104Z,96842.84
2023-02-17T08:09:44.524Z,96853.88
2023-02-17T08:11:02.543Z,96845.22
2023-02-17T08:12:23.780Z,96852.72
2023-02-17T08:13:33.113Z,96842.59
2023-02-17T08:14:41.050Z,96841.16
2023-02-17T08:15:47.209Z,96843.44
2023-02-17T08:16:51.271Z,96839.09
2023-02-17T08:18:02.070Z,96844.31
2023-02-17T08:19:07.783Z,96849.34
2023-02-17T08:20:43.972Z,96840.03
2023-02-17T08:21:51.427Z,96843.44
2023-02-17T08:22:56.869Z,96832.91
2023-02-17T08:24:01.702Z,96828.63
2023-02-17T08:25:19.487Z,96835.41
2023-02-17T08:26:28.561Z,96837.94
2023-02-17T08:27:33.587Z,96837.00
2023-02-17T08:28:36.025Z,96833.38
2023-02-17T08:29:43.962Z,96836.03
2023-02-17T08:30:49.107Z,96848.16
2023-02-17T08:31:56.029Z,96839.19
2023-02-17T08:33:02.778Z,96835.69
2023-02-17T08:34:07.122Z,96835.59
2023-02-17T08:35:12.379Z,96840.03
2023-02-17T08:36:14.937Z,96831.06
2023-02-17T08:37:19.745Z,96832.59
2023-02-17T08:38:22.096Z,96830.00
2023-02-17T08:39:27.414Z,96832.84
2023-02-17T08:40:32.464Z,96838.13
2023-02-17T08:41:39.930Z,96833.78
2023-02-17T08:42:45.160Z,96846.75
2023-02-17T08:43:51.028Z,96842.19
2023-02-17T08:45:00.307Z,96848.13
2023-02-17T08:46:02.464Z,96852.28
2023-02-17T08:47:10.624Z,96832.28
2023-02-17T08:48:15.576Z,96840.03
2023-02-17T08:49:22.387Z,96839.31
2023-02-17T08:50:27.479Z,96841.91
2023-02-17T08:51:29.729Z,96832.28
2023-02-17T08:52:35.034Z,96835.59
2023-02-17T08:53:39.907Z,96829.34
2023-02-17T08:54:45.038Z,96826.88
2023-02-17T08:55:50.077Z,96841.41
2023-02-17T08:56:55.315Z,96832.84
2023-02-17T08:58:00.287Z,96826.34
2023-02-17T08:59:04.867Z,96825.16
2023-02-17T09:00:14.306Z,96837.31
2023-02-17T09:01:19.785Z,96830.22
2023-02-17T09:02:24.697Z,96836.72
2023-02-17T09:03:29.687Z,96844.78
2023-02-17T09:04:34.404Z,96834.47
2023-02-17T09:05:36.980Z,96833.38
2023-02-17T09:06:44.576Z,96830.44
2023-02-17T09:07:49.680Z,96830.59
2023-02-17T09:08:53.283Z,96841.84
2023-02-17T09:10:13.855Z,96841.97
2023-02-17T09:11:21.052Z,96845.69
2023-02-17T09:12:25.941Z,96841.97
2023-02-17T09:13:30.903Z,96850.41
2023-02-17T09:14:35.966Z,96840.38
2023-02-17T09:15:46.433Z,96841.84
2023-02-17T09:16:48.525Z,96852.22
2023-02-17T09:17:53.326Z,96859.19
2023-02-17T09:18:58.486Z,96849.84
2023-02-17T09:20:04.236Z,96855.88
2023-02-17T09:21:14.815Z,96846.81
2023-02-17T09:22:31.584Z,96848.75
2023-02-17T09:23:39.675Z,96856.59
2023-02-17T09:24:44.914Z,96852.88
2023-02-17T09:25:47.265Z,96854.34
2023-02-17T09:26:52.500Z,96860.44
2023-02-17T09:27:59.769Z,96847.25
2023-02-17T09:29:05.308Z,96854.66
2023-02-17T09:30:09.421Z,96841.59
2023-02-17T09:31:20.459Z,96843.94
2023-02-17T09:32:25.870Z,96862.44
2023-02-17T09:33:27.872Z,96852.03
2023-02-17T09:34:32.654Z,96852.63
2023-02-17T09:35:36.747Z,96851.97
2023-02-17T09:36:43.159Z,96844.59
2023-02-17T09:37:46.147Z,96856.81
2023-02-17T09:38:51.337Z,96854.13
2023-02-17T09:39:56.514Z,96855.25
2023-02-17T09:41:04.358Z,96858.84
2023-02-17T09:42:16.654Z,96862.81
2023-02-17T09:43:28.047Z,96856.25
2023-02-17T09:44:41.932Z,96860.44
2023-02-17T09:45:53.196Z,96866.50
2023-02-17T09:47:08.962Z,96859.19
2023-02-17T09:48:14.050Z,96850.47
2023-02-17T09:49:23.171Z,96849.94
2023-02-17T09:51:26.075Z,96863.34
2023-02-17T09:52:36.304Z,96864.34
2023-02-17T09:53:43.324Z,96861.91
2023-02-17T09:55:01.451Z,96867.00
2023-02-17T09:56:14.144Z,96875.84
2023-02-17T09:57:23.762Z,96866.25
2023-02-17T09:58:34.642Z,96871.66
2023-02-17T09:59:43.180Z,96872.41
2023-02-17T10:00:50.981Z,96863.69
2023-02-17T10:01:56.014Z,96862.44
2023-02-17T10:03:12.602Z,96868.31
2023-02-17T10:04:23.735Z,96860.53
2023-02-17T10:05:33.111Z,96873.25
2023-02-17T10:06:41.803Z,96874.03
2023-02-17T10:07:51.450Z,96876.31
2023-02-17T10:09:02.198Z,96878.13
2023-02-17T10:10:12.905Z,96885.56
2023-02-17T10:11:25.752Z,96881.19
2023-02-17T10:12:37.629Z,96886.16
2023-02-17T10:13:45.845Z,96872.72
2023-02-17T10:14:55.754Z,96880.38
2023-02-17T10:16:08.504Z,96873.59
2023-02-17T10:17:20.963Z,96875.06
2023-02-17T10:18:36.668Z,96878.25
2023-02-17T10:19:52.140Z,96871.13
2023-02-17T10:21:05.071Z,96867.28
2023-02-17T10:22:13.451Z,96870.31
2023-02-17T10:23:22.806Z,96859.72
2023-02-17T10:24:27.217Z,96870.31
2023-02-17T10:25:54.652Z,96869.84
2023-02-17T10:27:33.967Z,96869.72
2023-02-17T10:29:04.209Z,96869.78
2023-02-17T10:30:25.212Z,96885.22
2023-02-17T10:31:47.248Z,96882.44
2023-02-17T10:33:07.463Z,96901.84
2023-02-17T10:34:33.923Z,96893.13
2023-02-17T10:35:57.872Z,96888.38
2023-02-17T10:37:03.010Z,96883.81
2023-02-17T10:38:27.709Z,96886.22
2023-02-17T10:39:53.254Z,96891.44
2023-02-17T10:41:04.130Z,96872.59
2023-02-17T10:42:16.091Z,96879.44
2023-02-17T10:43:30.363Z,96873.88
2023-02-17T10:44:48.943Z,96874.66
2023-02-17T10:45:54.777Z,96859.84
2023-02-17T10:46:58.511Z,96870.09
2023-02-17T10:48:09.873Z,96863.63
2023-02-17T10:49:26.365Z,96868.56
2023-02-17T10:50:31.601Z,96862.41
2023-02-17T10:51:37.152Z,96859.56
2023-02-17T10:52:41.173Z,96859.56
2023-02-17T10:53:50.824Z,96849.69
2023-02-17T10:55:01.909Z,96850.06
2023-02-17T10:56:14.709Z,96845.19
2023-02-17T10:57:27.069Z,96848.03
2023-02-17T10:58:37.001Z,96848.78
2023-02-17T10:59:45.415Z,96837.91
2023-02-17T11:00:53.566Z,96856.19
2023-02-17T11:02:08.405Z,96850.25
2023-02-17T11:03:41.525Z,96845.13
2023-02-17T11:04:55.460Z,96836.84
2023-02-17T11:06:02.652Z,96847.28
2023-02-17T11:07:16.036Z,96842.75
2023-02-17T11:08:36.966Z,96844.56
2023-02-17T11:10:01.752Z,96840.09
2023-02-17T11:11:15.056Z,96836.44
2023-02-17T11:12:28.209Z,96833.84
2023-02-17T11:13:46.174Z,96825.41
2023-02-17T11:14:58.880Z,96827.59
2023-02-17T11:16:06.695Z,96842.50
2023-02-17T11:17:22.651Z,96822.22
2023-02-17T11:18:32.429Z,96829.75
2023-02-17T11:19:46.773Z,96822.47
2023-02-17T11:21:08.188Z,96829.22
2023-02-17T11:22:55.487Z,96832.13
2023-02-17T11:24:07.832Z,96833.19
2023-02-17T11:25:41.439Z,96846.28
2023-02-17T11:28:49.321Z,96826.22
2023-02-17T11:30:01.695Z,96828.59
2023-02-17T11:31:15.398Z,96822.25
2023-02-17T11:32:36.587Z,96820.88
2023-02-17T11:33:43.334Z,96809.13
2023-02-17T11:35:09.755Z,96817.94
2023-02-17T11:36:41.380Z,96810.97
2023-02-17T11:37:48.696Z,96813.84
2023-02-17T11:38:54.416Z,96814.66
2023-02-17T11:39:56.639Z,96811.03
2023-02-17T11:41:07.268Z,96801.81
2023-02-17T11:42:20.595Z,96819.59
2023-02-17T11:43:31.311Z,96810.63
2023-02-17T11:44:38.841Z,96823.78
2023-02-17T11:45:52.966Z,96812.63
2023-02-17T11:47:13.044Z,96815.09
2023-02-17T11:48:39.903Z,96822.28
2023-02-17T11:50:11.140Z,96825.41
2023-02-17T11:51:25.598Z,96819.16
2023-02-17T11:53:07.786Z,96814.59
2023-02-17T11:54:29.936Z,96823.09
2023-02-17T11:55:46.150Z,96826.50
2023-02-17T11:57:17.186Z,96826.97
2023-02-17T11:58:37.753Z,96825.94
2023-02-17T12:00:08.640Z,96826.22
2023-02-17T12:01:33.113Z,96829.56
2023-02-17T12:02:58.620Z,96822.00
2023-02-17T12:04:44.287Z,96818.75
2023-02-17T12:06:01.868Z,96817.31
2023-02-17T12:07:39.206Z,96830.25
2023-02-17T12:09:08.054Z,96812.72
2023-02-17T12:10:27.325Z,96814.25
2023-02-17T12:11:46.114Z,96817.13
2023-02-17T12:13:06.268Z,96816.66
2023-02-17T12:14:50.215Z,96823.69
2023-02-17T12:16:10.241Z,96810.88
2023-02-17T12:17:36.985Z,96817.41
2023-02-17T12:18:56.224Z,96822.56
2023-02-17T12:20:11.940Z,96809.47
2023-02-17T12:21:27.947Z,96821.91
2023-02-17T12:22:39.101Z,96836.31
2023-02-17T12:24:26.255Z,96823.31
2023-02-17T12:25:36.048Z,96824.00
2023-02-17T12:26:42.493Z,96829.56
2023-02-17T12:28:02.151Z,96820.44
2023-02-17T12:29:23.045Z,96827.47
2023-02-17T12:30:41.574Z,96825.94
2023-02-17T12:32:14.741Z,96823.88
2023-02-17T12:33:49.934Z,96825.78
2023-02-17T12:35:15.762Z,96826.00
2023-02-17T12:36:28.943Z,96823.41
2023-02-17T12:37:40.940Z,96829.53
2023-02-17T12:39:01.811Z,96835.41
2023-02-17T12:40:22.238Z,96826.28
2023-02-17T12:41:34.661Z,96828.38
2023-02-17T12:42:44.821Z,96827.47
2023-02-17T12:43:55.012Z,96827.09
2023-02-17T12:46:24.973Z,96815.66
2023-02-17T12:47:57.573Z,96822.59
2023-02-17T12:49:19.035Z,96823.31
2023-02-17T12:50:31.540Z,96816.31
2023-02-17T12:51:45.471Z,96813.25
2023-02-17T12:53:00.051Z,96819.09
2023-02-17T12:54:17.735Z,96812.91
2023-02-17T12:55:41.112Z,96811.94
2023-02-17T12:57:24.142Z,96803.72
2023-02-17T12:58:35.344Z,96809.88
2023-02-17T12:59:45.158Z,96802.00
2023-02-17T13:00:57.430Z,96806.38
2023-02-17T13:02:14.276Z,96800.38
2023-02-17T13:03:21.172Z,96798.56
2023-02-17T13:04:37.687Z,96798.94
2023-02-17T13:05:59.151Z,96792.31
2023-02-17T13:07:27.069Z,96797.41
2023-02-17T13:08:49.127Z,96800.56
2023-02-17T13:09:52.372Z,96791.34
2023-02-17T13:11:10.613Z,96796.28
2023-02-17T13:12:40.335Z,96800.09
2023-02-17T13:15:44.663Z,96806.50
2023-02-17T13:16:48.458Z,96809.34
2023-02-17T13:18:02.490Z,96793.53
2023-02-17T13:21:18.308Z,96788.75
2023-02-17T13:22:25.738Z,96802.84
2023-02-17T13:23:40.981Z,96801.97
2023-02-17T13:24:56.594Z,96802.53
2023-02-17T13:26:29.404Z,96795.34
2023-02-17T13:27:36.688Z,96802.22
2023-02-17T13:28:41.897Z,96789.53
2023-02-17T13:29:46.811Z,96795.91
2023-02-17T13:30:52.620Z,96805.47
2023-02-17T13:32:00.325Z,96802.22
2023-02-17T13:33:04.729Z,96806.44
2023-02-17T13:34:14.739Z,96800.00
2023-02-17T13:35:37.656Z,96801.41
2023-02-17T13:36:43.263Z,96805.00
2023-02-17T13:39:45.890Z,96803.13
2023-02-17T13:40:52.033Z,96800.25
2023-02-17T13:42:03.229Z,96803.66